createdAt,value
2018-10-09T00:02:01.751Z,98519.05
2018-10-09T00:04:31.079Z,98521.20
2018-10-09T00:07:00.278Z,98522.95
2018-10-09T00:09:29.482Z,98521.78
2018-10-09T00:11:58.728Z,98524.27
2018-10-09T00:14:27.931Z,98522.52
2018-10-09T00:16:56.959Z,98522.81
2018-10-09T00:19:26.164Z,98520.81
2018-10-09T00:21:55.356Z,98521.58
2018-10-09T00:24:24.330Z,98527.41
2018-10-09T00:26:53.295Z,98524.88
2018-10-09T00:29:22.631Z,98526.28
2018-10-09T00:31:51.952Z,98523.27
2018-10-09T00:34:21.396Z,98522.95
2018-10-09T00:36:50.572Z,98524.37
2018-10-09T00:39:19.677Z,98523.67
2018-10-09T00:41:49.035Z,98522.58
2018-10-09T00:44:17.995Z,98522.27
2018-10-09T00:46:47.338Z,98516.80
2018-10-09T00:49:16.397Z,98526.22
2018-10-09T00:51:45.603Z,98522.05
2018-10-09T00:54:14.839Z,98524.55
2018-10-09T00:56:43.753Z,98526.52
2018-10-09T00:59:13.143Z,98529.67
2018-10-09T01:01:42.147Z,98524.91
2018-10-09T01:04:11.240Z,98523.63
2018-10-09T01:06:40.628Z,98529.31
2018-10-09T01:09:10.162Z,98520.96
2018-10-09T01:11:39.435Z,98525.30
2018-10-09T01:14:08.899Z,98523.98
2018-10-09T01:16:38.257Z,98525.38
2018-10-09T01:19:07.626Z,98526.03
2018-10-09T01:21:37.043Z,98523.84
2018-10-09T01:24:06.011Z,98525.20
2018-10-09T01:26:35.212Z,98518.64
2018-10-09T01:29:04.486Z,98519.95
2018-10-09T01:31:33.699Z,98526.12
2018-10-09T01:34:02.884Z,98524.72
2018-10-09T01:36:32.082Z,98527.00
2018-10-09T01:39:01.070Z,98520.27
2018-10-09T01:41:30.017Z,98523.58
2018-10-09T01:43:59.216Z,98523.06
2018-10-09T01:46:28.458Z,98524.89
2018-10-09T01:48:57.962Z,98528.89
2018-10-09T01:51:27.416Z,98525.86
2018-10-09T01:53:56.351Z,98527.30
2018-10-09T01:56:25.164Z,98525.68
2018-10-09T01:58:54.065Z,98527.48
2018-10-09T02:01:23.327Z,98524.06
2018-10-09T02:03:52.684Z,98532.50
2018-10-09T02:06:21.728Z,98525.24
2018-10-09T02:08:50.718Z,98531.96
2018-10-09T02:11:19.914Z,98535.19
2018-10-09T02:13:49.068Z,98528.70
2018-10-09T02:16:18.234Z,98529.66
2018-10-09T02:18:47.621Z,98531.89
2018-10-09T02:21:16.927Z,98536.26
2018-10-09T02:23:46.207Z,98530.02
2018-10-09T02:26:15.561Z,98531.92
2018-10-09T02:28:44.857Z,98530.01
2018-10-09T02:31:14.035Z,98530.28
2018-10-09T02:33:43.318Z,98524.41
2018-10-09T02:36:12.410Z,98520.04
2018-10-09T02:38:41.843Z,98525.72
2018-10-09T02:41:11.202Z,98523.27
2018-10-09T02:43:40.615Z,98517.87
2018-10-09T02:46:09.896Z,98524.11
2018-10-09T02:48:39.323Z,98518.27
2018-10-09T02:51:08.251Z,98517.78
2018-10-09T02:53:37.122Z,98508.83
2018-10-09T02:56:06.306Z,98516.72
2018-10-09T02:58:35.460Z,98513.37
2018-10-09T03:01:04.828Z,98513.37
2018-10-09T03:03:33.782Z,98514.34
2018-10-09T03:06:02.856Z,98508.98
2018-10-09T03:08:32.228Z,98512.97
2018-10-09T03:11:01.459Z,98515.59
2018-10-09T03:13:30.482Z,98514.87
2018-10-09T03:15:59.811Z,98521.25
2018-10-09T03:18:29.096Z,98520.32
2018-10-09T03:20:58.510Z,98529.86
2018-10-09T03:23:27.747Z,98531.83
2018-10-09T03:25:56.986Z,98530.83
2018-10-09T03:28:26.340Z,98532.97
2018-10-09T03:30:55.339Z,98531.66
2018-10-09T03:33:24.439Z,98534.47
2018-10-09T03:35:53.674Z,98531.36
2018-10-09T03:38:22.914Z,98535.03
2018-10-09T03:40:52.323Z,98533.61
2018-10-09T03:43:21.662Z,98539.69
2018-10-09T03:45:50.781Z,98537.72
2018-10-09T03:48:19.697Z,98547.00
2018-10-09T03:50:48.955Z,98544.73
2018-10-09T03:53:18.258Z,98546.13
2018-10-09T03:55:47.773Z,98554.58
2018-10-09T03:58:16.950Z,98553.03
2018-10-09T04:00:46.251Z,98556.70
2018-10-09T04:03:15.651Z,98552.77
2018-10-09T04:05:44.989Z,98557.67
2018-10-09T04:08:14.166Z,98555.50
2018-10-09T04:10:43.471Z,98555.55
2018-10-09T04:13:12.865Z,98559.11
2018-10-09T04:15:42.130Z,98555.38
2018-10-09T04:18:11.460Z,98551.48
2018-10-09T04:20:40.851Z,98561.50
2018-10-09T04:23:10.194Z,98561.82
2018-10-09T04:25:39.563Z,98559.36
2018-10-09T04:28:08.819Z,98559.00
2018-10-09T04:30:37.803Z,98558.13
2018-10-09T04:33:07.107Z,98558.69
2018-10-09T04:35:36.471Z,98556.81
2018-10-09T04:38:05.666Z,98557.01
2018-10-09T04:40:34.946Z,98559.91
2018-10-09T04:43:04.206Z,98556.66
2018-10-09T04:45:33.471Z,98559.64
2018-10-09T04:48:02.468Z,98555.53
2018-10-09T04:50:31.939Z,98567.44
2018-10-09T04:53:01.161Z,98563.23
2018-10-09T04:55:30.535Z,98568.87
2018-10-09T04:57:59.743Z,98572.38
2018-10-09T05:00:28.909Z,98574.61
2018-10-09T05:02:58.142Z,98572.86
2018-10-09T05:05:27.375Z,98577.55
2018-10-09T05:07:56.294Z,98578.38
2018-10-09T05:10:25.511Z,98579.12
2018-10-09T05:12:54.925Z,98587.92
2018-10-09T05:15:24.167Z,98589.81
2018-10-09T05:17:53.707Z,98593.27
2018-10-09T05:20:23.035Z,98597.99
2018-10-09T05:22:52.348Z,98596.81
2018-10-09T05:25:21.734Z,98598.92
2018-10-09T05:27:50.623Z,98599.63
2018-10-09T05:30:19.727Z,98602.33
2018-10-09T05:32:49.116Z,98605.97
2018-10-09T05:35:18.452Z,98606.02
2018-10-09T05:37:47.898Z,98611.23
2018-10-09T05:40:16.840Z,98610.23
2018-10-09T05:42:45.771Z,98611.31
2018-10-09T05:45:14.651Z,98620.39
2018-10-09T05:47:43.787Z,98615.55
2018-10-09T05:50:13.135Z,98615.85
2018-10-09T05:52:42.312Z,98621.84
2018-10-09T05:55:11.576Z,98627.36
2018-10-09T05:57:40.883Z,98625.36
2018-10-09T06:00:10.614Z,98631.47
2018-10-09T06:02:39.808Z,98630.57
2018-10-09T06:05:09.126Z,98625.78
2018-10-09T06:07:38.593Z,98632.39
2018-10-09T06:10:09.131Z,98630.59
2018-10-09T06:12:38.420Z,98635.48
2018-10-09T06:15:07.388Z,98635.45
2018-10-09T06:17:36.451Z,98633.25
2018-10-09T06:20:05.574Z,98637.05
2018-10-09T06:22:34.808Z,98635.34
2018-10-09T06:25:04.191Z,98631.34
2018-10-09T06:27:33.111Z,98635.50
2018-10-09T06:30:02.555Z,98644.67
2018-10-09T06:32:31.433Z,98646.20
2018-10-09T06:35:00.682Z,98646.73
2018-10-09T06:37:29.867Z,98652.03
2018-10-09T06:39:58.870Z,98651.14
2018-10-09T06:42:28.147Z,98656.65
2018-10-09T06:44:57.147Z,98657.47
2018-10-09T06:47:26.216Z,98663.39
2018-10-09T06:49:55.679Z,98664.75
2018-10-09T06:52:25.011Z,98666.44
2018-10-09T06:54:54.428Z,98666.98
2018-10-09T06:57:23.359Z,98671.08
2018-10-09T06:59:52.748Z,98664.73
2018-10-09T07:02:21.859Z,98668.88
2018-10-09T07:04:51.196Z,98667.76
2018-10-09T07:07:20.552Z,98671.59
2018-10-09T07:09:49.995Z,98677.88
2018-10-09T07:12:19.282Z,98673.57
2018-10-09T07:14:48.460Z,98675.95
2018-10-09T07:17:17.690Z,98681.41
2018-10-09T07:19:47.001Z,98686.79
2018-10-09T07:22:16.191Z,98689.34
2018-10-09T07:24:45.336Z,98686.39
2018-10-09T07:27:14.326Z,98683.89
2018-10-09T07:29:43.628Z,98685.34
2018-10-09T07:32:12.628Z,98688.75
2018-10-09T07:34:41.660Z,98692.48
2018-10-09T07:37:10.842Z,98687.34
2018-10-09T07:39:40.002Z,98689.92
2018-10-09T07:42:09.258Z,98689.11
2018-10-09T07:44:38.393Z,98694.09
2018-10-09T07:47:07.752Z,98690.93
2018-10-09T07:49:37.098Z,98690.55
2018-10-09T07:52:06.449Z,98699.33
2018-10-09T07:54:35.684Z,98691.00
2018-10-09T07:57:04.964Z,98695.70
2018-10-09T07:59:34.150Z,98693.44
2018-10-09T08:02:03.191Z,98686.37
2018-10-09T08:04:32.216Z,98688.97
2018-10-09T08:07:01.268Z,98687.15
2018-10-09T08:09:30.580Z,98689.76
2018-10-09T08:11:59.871Z,98688.88
2018-10-09T08:14:29.308Z,98691.50
2018-10-09T08:16:58.369Z,98689.95
2018-10-09T08:19:27.608Z,98692.68
2018-10-09T08:21:56.712Z,98694.69
2018-10-09T08:24:25.923Z,98686.41
2018-10-09T08:26:55.252Z,98680.23
2018-10-09T08:29:24.612Z,98689.17
2018-10-09T08:31:53.860Z,98686.18
2018-10-09T08:34:23.115Z,98687.53
2018-10-09T08:36:52.068Z,98679.61
2018-10-09T08:39:21.032Z,98678.86
2018-10-09T08:41:50.385Z,98680.55
2018-10-09T08:44:19.797Z,98676.94
2018-10-09T08:46:49.255Z,98681.61
2018-10-09T08:49:18.587Z,98677.72
2018-10-09T08:51:48.100Z,98677.44
2018-10-09T08:54:17.370Z,98677.11
2018-10-09T08:56:46.668Z,98668.84
2018-10-09T08:59:15.804Z,98680.17
2018-10-09T09:01:44.688Z,98670.78
2018-10-09T09:04:13.606Z,98670.30
2018-10-09T09:06:42.737Z,98672.34
2018-10-09T09:09:12.478Z,98666.39
2018-10-09T09:11:41.662Z,98666.86
2018-10-09T09:14:10.708Z,98667.71
2018-10-09T09:16:40.016Z,98669.09
2018-10-09T09:19:09.213Z,98670.02
2018-10-09T09:21:38.039Z,98674.53
2018-10-09T09:24:07.223Z,98666.44
2018-10-09T09:26:36.527Z,98663.03
2018-10-09T09:29:05.942Z,98671.05
2018-10-09T09:31:35.141Z,98671.18
2018-10-09T09:34:04.095Z,98673.06
2018-10-09T09:36:33.076Z,98669.66
2018-10-09T09:39:02.008Z,98668.89
2018-10-09T09:41:30.908Z,98671.56
2018-10-09T09:43:59.775Z,98672.09
2018-10-09T09:46:28.791Z,98672.99
2018-10-09T09:48:57.763Z,98667.22
2018-10-09T09:51:26.784Z,98660.83
2018-10-09T09:53:55.712Z,98663.51
2018-10-09T09:56:24.635Z,98668.56
2018-10-09T09:58:53.671Z,98660.11
2018-10-09T10:01:26.559Z,98666.02
2018-10-09T10:03:55.483Z,98659.31
2018-10-09T10:06:24.429Z,98666.94
2018-10-09T10:08:53.355Z,98652.86
2018-10-09T10:11:22.328Z,98652.99
2018-10-09T10:13:51.310Z,98654.47
2018-10-09T10:16:20.745Z,98648.43
2018-10-09T10:18:49.629Z,98640.78
2018-10-09T10:21:19.143Z,98652.74
2018-10-09T10:23:48.064Z,98650.83
2018-10-09T10:26:17.047Z,98637.37
2018-10-09T10:28:46.004Z,98638.95
2018-10-09T10:31:14.941Z,98632.30
2018-10-09T10:33:44.142Z,98634.70
2018-10-09T10:36:13.171Z,98626.84
2018-10-09T10:38:42.181Z,98626.39
2018-10-09T10:41:11.131Z,98628.95
2018-10-09T10:43:39.999Z,98627.36
2018-10-09T10:46:09.771Z,98620.47
2018-10-09T10:48:48.462Z,98622.09
2018-10-09T10:51:17.387Z,98622.57
2018-10-09T10:53:46.440Z,98626.41
2018-10-09T10:56:15.324Z,98625.31
2018-10-09T10:58:44.398Z,98621.08
2018-10-09T11:01:13.359Z,98612.60
2018-10-09T11:03:42.391Z,98617.66
2018-10-09T11:06:11.226Z,98616.27
2018-10-09T11:08:40.244Z,98616.30
2018-10-09T11:11:09.201Z,98617.00
2018-10-09T11:13:38.119Z,98615.28
2018-10-09T11:16:07.700Z,98612.66
2018-10-09T11:18:36.728Z,98613.31
2018-10-09T11:21:05.801Z,98615.91
2018-10-09T11:23:34.932Z,98609.86
2018-10-09T11:26:03.982Z,98609.17
2018-10-09T11:28:33.018Z,98608.59
2018-10-09T11:31:02.023Z,98600.13
2018-10-09T11:33:31.035Z,98613.17
2018-10-09T11:35:59.965Z,98608.00
2018-10-09T11:38:28.855Z,98602.84
2018-10-09T11:40:57.844Z,98606.96
2018-10-09T11:43:26.856Z,98600.70
2018-10-09T11:45:56.723Z,98604.80
2018-10-09T11:48:25.605Z,98602.67
2018-10-09T11:50:54.471Z,98604.38
2018-10-09T11:53:23.349Z,98599.52
2018-10-09T11:55:52.279Z,98597.55
2018-10-09T11:58:21.369Z,98597.28
2018-10-09T12:00:51.911Z,98595.69
2018-10-09T12:03:20.936Z,98598.43
2018-10-09T12:05:50.002Z,98588.20
2018-10-09T12:08:18.933Z,98598.98
2018-10-09T12:10:47.945Z,98591.05
2018-10-09T12:13:16.885Z,98591.36
2018-10-09T12:15:45.782Z,98588.40
2018-10-09T12:18:14.776Z,98589.37
2018-10-09T12:20:43.722Z,98589.59
2018-10-09T12:23:12.663Z,98578.02
2018-10-09T12:25:41.583Z,98579.28
2018-10-09T12:28:10.485Z,98581.33
2018-10-09T12:30:39.405Z,98583.59
2018-10-09T12:33:08.359Z,98576.77
2018-10-09T12:35:37.247Z,98580.06
2018-10-09T12:38:06.312Z,98574.44
2018-10-09T12:40:35.190Z,98574.64
2018-10-09T12:43:04.180Z,98578.14
2018-10-09T12:45:33.049Z,98575.32
2018-10-09T12:48:01.996Z,98567.45
2018-10-09T12:50:30.883Z,98571.05
2018-10-09T12:52:59.758Z,98564.62
2018-10-09T12:55:28.668Z,98567.45
2018-10-09T12:57:57.667Z,98568.77
2018-10-09T13:00:26.587Z,98565.80
2018-10-09T13:02:55.514Z,98563.70
2018-10-09T13:05:24.464Z,98563.80
2018-10-09T13:07:53.466Z,98556.57
2018-10-09T13:10:22.471Z,98553.84
2018-10-09T13:12:51.403Z,98549.66
2018-10-09T13:15:20.447Z,98554.75
2018-10-09T13:17:49.492Z,98556.20
2018-10-09T13:20:18.504Z,98548.59
2018-10-09T13:22:47.535Z,98546.17
2018-10-09T13:25:16.873Z,98544.08
2018-10-09T13:27:45.729Z,98537.59
2018-10-09T13:30:14.704Z,98539.56
2018-10-09T13:32:44.091Z,98540.36
2018-10-09T13:35:12.967Z,98535.88
2018-10-09T13:37:42.297Z,98529.31
2018-10-09T13:40:11.536Z,98528.73
2018-10-09T13:42:40.339Z,98527.38
2018-10-09T13:45:09.333Z,98529.81
2018-10-09T13:47:38.360Z,98533.91
2018-10-09T13:50:07.464Z,98535.91
2018-10-09T13:52:36.452Z,98530.75
2018-10-09T13:55:05.480Z,98527.94
2018-10-09T13:57:35.045Z,98529.11
2018-10-09T14:00:04.251Z,98531.20
2018-10-09T14:02:33.643Z,98521.36
2018-10-09T14:05:02.669Z,98525.46
2018-10-09T14:07:31.992Z,98522.55
2018-10-09T14:10:01.439Z,98521.32
2018-10-09T14:12:30.444Z,98516.83
2018-10-09T14:14:59.896Z,98517.80
2018-10-09T14:17:28.938Z,98513.72
2018-10-09T14:19:58.028Z,98517.83
2018-10-09T14:22:27.252Z,98515.45
2018-10-09T14:24:56.419Z,98514.80
2018-10-09T14:27:25.759Z,98516.94
2018-10-09T14:29:54.730Z,98520.88
2018-10-09T14:32:23.651Z,98513.62
2018-10-09T14:34:52.715Z,98518.39
2018-10-09T14:37:21.940Z,98520.84
2018-10-09T14:39:50.841Z,98520.38
2018-10-09T14:42:20.491Z,98522.22
2018-10-09T14:44:49.482Z,98523.08
2018-10-09T14:47:18.459Z,98517.52
2018-10-09T14:49:47.576Z,98520.63
2018-10-09T14:52:16.457Z,98516.11
2018-10-09T14:54:45.495Z,98517.55
2018-10-09T14:57:14.491Z,98516.59
2018-10-09T14:59:43.477Z,98522.95
2018-10-09T15:02:12.480Z,98519.42
2018-10-09T15:04:41.424Z,98515.91
2018-10-09T15:07:10.514Z,98524.67
2018-10-09T15:09:39.487Z,98522.52
2018-10-09T15:12:08.499Z,98526.27
2018-10-09T15:14:37.593Z,98527.14
2018-10-09T15:17:06.704Z,98526.77
2018-10-09T15:19:35.780Z,98531.13
2018-10-09T15:22:04.723Z,98533.03
2018-10-09T15:24:33.656Z,98539.66
2018-10-09T15:27:02.596Z,98542.02
2018-10-09T15:29:31.603Z,98536.97
2018-10-09T15:32:00.640Z,98538.28
2018-10-09T15:34:29.526Z,98545.75
2018-10-09T15:36:58.553Z,98547.33
2018-10-09T15:39:27.448Z,98554.39
2018-10-09T15:41:56.501Z,98548.16
2018-10-09T15:44:25.452Z,98548.49
2018-10-09T15:46:54.371Z,98543.36
2018-10-09T15:49:23.363Z,98539.92
2018-10-09T15:51:52.276Z,98547.58
2018-10-09T15:54:21.155Z,98540.61
2018-10-09T15:56:50.139Z,98544.39
2018-10-09T15:59:19.195Z,98542.30
2018-10-09T16:01:48.185Z,98549.14
2018-10-09T16:04:17.227Z,98550.02
2018-10-09T16:06:46.228Z,98549.27
2018-10-09T16:09:15.215Z,98550.80
2018-10-09T16:11:44.108Z,98556.00
2018-10-09T16:14:13.081Z,98561.52
2018-10-09T16:16:42.079Z,98562.23
2018-10-09T16:19:12.029Z,98560.75
2018-10-09T16:21:41.334Z,98568.55
2018-10-09T16:24:10.596Z,98567.87
2018-10-09T16:26:39.595Z,98572.88
2018-10-09T16:29:08.483Z,98574.72
2018-10-09T16:31:37.464Z,98574.09
2018-10-09T16:34:06.500Z,98583.03
2018-10-09T16:36:35.380Z,98583.34
2018-10-09T16:39:05.856Z,98583.95
2018-10-09T16:41:34.871Z,98578.55
2018-10-09T16:44:03.931Z,98579.62
2018-10-09T16:46:33.340Z,98585.53
2018-10-09T16:49:02.290Z,98585.30
2018-10-09T16:51:31.554Z,98594.92
2018-10-09T16:54:00.650Z,98590.16
2018-10-09T16:56:29.663Z,98595.34
2018-10-09T16:58:58.532Z,98598.07
2018-10-09T17:01:27.471Z,98600.27
2018-10-09T17:03:57.009Z,98598.37
2018-10-09T17:06:26.008Z,98600.30
2018-10-09T17:08:55.010Z,98605.40
2018-10-09T17:11:23.971Z,98611.04
2018-10-09T17:13:52.948Z,98609.73
2018-10-09T17:16:21.808Z,98615.28
2018-10-09T17:18:50.769Z,98618.59
2018-10-09T17:21:19.855Z,98614.03
2018-10-09T17:23:48.862Z,98618.88
2018-10-09T17:26:17.819Z,98619.84
2018-10-09T17:28:46.848Z,98623.16
2018-10-09T17:31:15.775Z,98622.84
2018-10-09T17:33:44.747Z,98636.18
2018-10-09T17:36:13.620Z,98641.09
2018-10-09T17:38:42.711Z,98637.08
2018-10-09T17:41:11.702Z,98640.25
2018-10-09T17:43:40.594Z,98637.45
2018-10-09T17:46:09.659Z,98639.95
2018-10-09T17:48:38.609Z,98643.77
2018-10-09T17:51:07.570Z,98646.34
2018-10-09T17:53:36.552Z,98648.92
2018-10-09T17:56:05.863Z,98647.80
2018-10-09T17:58:35.111Z,98651.70
2018-10-09T18:01:04.068Z,98646.16
2018-10-09T18:03:33.097Z,98651.67
2018-10-09T18:06:02.035Z,98654.77
2018-10-09T18:08:30.987Z,98651.52
2018-10-09T18:11:00.063Z,98657.74
2018-10-09T18:13:29.114Z,98657.16
2018-10-09T18:15:58.068Z,98667.16
2018-10-09T18:18:26.994Z,98661.55
2018-10-09T18:20:56.912Z,98661.38
2018-10-09T18:23:26.007Z,98663.09
2018-10-09T18:25:54.944Z,98679.23
2018-10-09T18:28:23.900Z,98676.30
2018-10-09T18:30:52.877Z,98670.55
2018-10-09T18:33:22.093Z,98677.09
2018-10-09T18:35:51.542Z,98674.20
2018-10-09T18:38:20.527Z,98675.23
2018-10-09T18:40:49.740Z,98680.47
2018-10-09T18:43:18.564Z,98682.66
2018-10-09T18:45:47.487Z,98679.76
2018-10-09T18:48:16.333Z,98683.64
2018-10-09T18:50:45.323Z,98682.39
2018-10-09T18:53:14.419Z,98685.84
2018-10-09T18:55:43.484Z,98690.92
2018-10-09T18:58:12.404Z,98691.17
2018-10-09T19:00:41.331Z,98699.40
2018-10-09T19:03:10.207Z,98705.87
2018-10-09T19:05:39.159Z,98705.77
2018-10-09T19:08:08.195Z,98709.40
2018-10-09T19:10:37.221Z,98706.44
2018-10-09T19:13:06.179Z,98712.19
2018-10-09T19:15:35.193Z,98716.42
2018-10-09T19:18:04.195Z,98715.16
2018-10-09T19:20:33.224Z,98719.34
2018-10-09T19:23:02.224Z,98717.61
2018-10-09T19:25:31.088Z,98718.02
2018-10-09T19:28:00.106Z,98719.69
2018-10-09T19:33:12.687Z,98732.98
2018-10-09T19:35:41.579Z,98732.53
2018-10-09T19:38:10.583Z,98735.77
2018-10-09T19:40:39.626Z,98742.12
2018-10-09T19:43:08.513Z,98741.94
2018-10-09T19:45:37.506Z,98741.73
2018-10-09T19:48:06.492Z,98748.67
2018-10-09T19:50:35.449Z,98753.72
2018-10-09T19:53:04.495Z,98754.38
2018-10-09T19:55:33.507Z,98753.27
2018-10-09T19:58:02.372Z,98755.01
2018-10-09T20:00:31.268Z,98761.11
2018-10-09T20:03:00.144Z,98754.91
2018-10-09T20:05:29.195Z,98757.97
2018-10-09T20:07:58.119Z,98760.75
2018-10-09T20:10:26.995Z,98755.30
2018-10-09T20:12:55.971Z,98764.37
2018-10-09T20:15:24.876Z,98770.11
2018-10-09T20:17:53.920Z,98774.40
2018-10-09T20:20:23.061Z,98778.52
2018-10-09T20:22:52.128Z,98779.59
2018-10-09T20:25:21.071Z,98776.03
2018-10-09T20:27:50.050Z,98782.48
2018-10-09T20:30:18.935Z,98786.27
2018-10-09T20:32:47.791Z,98787.52
2018-10-09T20:35:16.767Z,98779.98
2018-10-09T20:37:45.717Z,98784.97
2018-10-09T20:40:14.631Z,98785.34
2018-10-09T20:42:43.484Z,98780.99
2018-10-09T20:45:12.580Z,98780.80
2018-10-09T20:47:43.458Z,98776.11
2018-10-09T20:50:13.226Z,98784.66
2018-10-09T20:52:42.216Z,98783.14
2018-10-09T20:55:11.264Z,98787.30
2018-10-09T20:57:40.189Z,98792.77
2018-10-09T21:00:09.412Z,98789.01
2018-10-09T21:02:38.490Z,98796.03
2018-10-09T21:05:07.845Z,98796.56
2018-10-09T21:07:37.191Z,98792.64
2018-10-09T21:10:06.491Z,98799.02
2018-10-09T21:12:35.827Z,98802.81
2018-10-09T21:15:05.551Z,98798.38
2018-10-09T21:17:34.706Z,98801.75
2018-10-09T21:20:04.044Z,98795.31
2018-10-09T21:22:33.278Z,98804.97
2018-10-09T21:25:02.444Z,98799.05
2018-10-09T21:27:31.744Z,98804.53
2018-10-09T21:30:01.064Z,98808.39
2018-10-09T21:32:30.188Z,98807.88
2018-10-09T21:34:59.211Z,98811.55
2018-10-09T21:37:28.428Z,98808.58
2018-10-09T21:39:57.620Z,98808.67
2018-10-09T21:42:26.427Z,98812.68
2018-10-09T21:44:55.494Z,98820.02
2018-10-09T21:47:24.330Z,98813.48
2018-10-09T21:49:53.483Z,98810.30
2018-10-09T21:52:22.426Z,98813.53
2018-10-09T21:54:51.279Z,98814.45
2018-10-09T21:57:20.452Z,98818.28
2018-10-09T21:59:49.590Z,98811.83
2018-10-09T22:02:18.395Z,98815.12
2018-10-09T22:04:47.253Z,98822.30
2018-10-09T22:07:17.710Z,98819.27
2018-10-09T22:09:47.202Z,98824.11
2018-10-09T22:12:16.025Z,98822.66
2018-10-09T22:14:45.155Z,98822.55
2018-10-09T22:17:14.311Z,98821.43
2018-10-09T22:19:43.468Z,98821.23
2018-10-09T22:22:12.438Z,98827.53
2018-10-09T22:24:41.625Z,98825.20
2018-10-09T22:27:10.555Z,98825.15
2018-10-09T22:29:39.711Z,98820.95
2018-10-09T22:32:08.715Z,98821.09
2018-10-09T22:34:37.871Z,98829.68
2018-10-09T22:37:07.096Z,98827.77
2018-10-09T22:39:36.339Z,98827.02
2018-10-09T22:42:05.160Z,98828.58
2018-10-09T22:44:34.408Z,98832.80
2018-10-09T22:47:03.673Z,98824.73
2018-10-09T22:49:32.917Z,98826.62
2018-10-09T22:52:02.022Z,98823.07
2018-10-09T22:54:31.428Z,98824.97
2018-10-09T22:57:00.823Z,98823.16
2018-10-09T22:59:29.780Z,98831.48
2018-10-09T23:01:59.221Z,98827.28
2018-10-09T23:04:28.408Z,98834.33
2018-10-09T23:06:57.807Z,98833.45
2018-10-09T23:09:27.021Z,98838.07
2018-10-09T23:11:56.311Z,98839.96
2018-10-09T23:14:25.564Z,98841.41
2018-10-09T23:16:54.826Z,98836.71
2018-10-09T23:19:24.263Z,98837.75
2018-10-09T23:21:53.687Z,98833.58
2018-10-09T23:24:22.859Z,98835.94
2018-10-09T23:26:52.108Z,98839.05
2018-10-09T23:29:21.568Z,98841.76
2018-10-09T23:31:50.751Z,98834.35
2018-10-09T23:34:20.095Z,98834.16
2018-10-09T23:36:49.359Z,98834.27
2018-10-09T23:39:18.714Z,98836.27
2018-10-09T23:41:47.615Z,98834.87
2018-10-09T23:44:16.642Z,98839.56
2018-10-09T23:46:45.728Z,98836.34
2018-10-09T23:49:14.872Z,98832.12
2018-10-09T23:51:44.068Z,98836.63
2018-10-09T23:54:13.427Z,98832.44
2018-10-09T23:56:42.645Z,98834.73
2018-10-09T23:59:11.910Z,98826.13
